sensor_id;sensor_type;location;lat;lon;timestamp;pressure;altitude;pressure_sealevel;temperature;humidity
21742;BME280;11033;47.490;11.116;2023-05-01T00:00:59;92965.94;;;9.16;85.68
21742;BME280;11033;47.490;11.116;2023-05-01T00:03:25;92969.94;;;9.12;85.90
21742;BME280;11033;47.490;11.116;2023-05-01T00:05:50;92956.81;;;8.97;85.54
21742;BME280;11033;47.490;11.116;2023-05-01T00:08:16;92960.88;;;9.00;85.49
21742;BME280;11033;47.490;11.116;2023-05-01T00:10:41;92960.25;;;8.98;85.83
21742;BME280;11033;47.490;11.116;2023-05-01T00:13:07;92954.84;;;8.84;86.66
21742;BME280;11033;47.490;11.116;2023-05-01T00:15:33;92953.69;;;8.72;87.34
21742;BME280;11033;47.490;11.116;2023-05-01T00:17:59;92952.22;;;8.84;85.86
21742;BME280;11033;47.490;11.116;2023-05-01T00:20:28;92951.00;;;9.02;85.81
21742;BME280;11033;47.490;11.116;2023-05-01T00:22:53;92946.41;;;8.89;85.83
21742;BME280;11033;47.490;11.116;2023-05-01T00:25:19;92935.69;;;8.69;87.05
21742;BME280;11033;47.490;11.116;2023-05-01T00:27:44;92938.94;;;8.71;87.02
21742;BME280;11033;47.490;11.116;2023-05-01T00:30:10;92936.94;;;8.73;86.54
21742;BME280;11033;47.490;11.116;2023-05-01T00:32:35;92939.75;;;8.72;86.55
21742;BME280;11033;47.490;11.116;2023-05-01T00:35:00;92937.75;;;8.74;86.03
21742;BME280;11033;47.490;11.116;2023-05-01T00:37:26;92930.88;;;8.73;86.22
21742;BME280;11033;47.490;11.116;2023-05-01T00:39:51;92931.84;;;8.86;84.68
21742;BME280;11033;47.490;11.116;2023-05-01T00:42:16;92927.44;;;8.72;86.88
21742;BME280;11033;47.490;11.116;2023-05-01T00:44:42;92934.13;;;8.75;85.59
21742;BME280;11033;47.490;11.116;2023-05-01T00:47:07;92932.53;;;8.59;86.26
21742;BME280;11033;47.490;11.116;2023-05-01T00:49:32;92923.91;;;8.65;86.21
21742;BME280;11033;47.490;11.116;2023-05-01T00:51:58;92919.78;;;8.56;86.92
21742;BME280;11033;47.490;11.116;2023-05-01T00:54:24;92917.78;;;8.58;86.81
21742;BME280;11033;47.490;11.116;2023-05-01T00:56:51;92922.94;;;8.66;86.01
21742;BME280;11033;47.490;11.116;2023-05-01T00:59:17;92914.75;;;8.76;86.84
21742;BME280;11033;47.490;11.116;2023-05-01T01:01:42;92918.81;;;8.78;85.68
21742;BME280;11033;47.490;11.116;2023-05-01T01:04:08;92915.03;;;8.66;86.07
21742;BME280;11033;47.490;11.116;2023-05-01T01:15:32;92908.56;;;8.47;87.79
21742;BME280;11033;47.490;11.116;2023-05-01T01:23:57;92901.59;;;8.90;84.00
21742;BME280;11033;47.490;11.116;2023-05-01T01:27:00;92894.78;;;8.96;84.39
21742;BME280;11033;47.490;11.116;2023-05-01T01:35:00;92898.88;;;8.84;85.96
21742;BME280;11033;47.490;11.116;2023-05-01T01:37:48;92897.59;;;8.95;84.24
21742;BME280;11033;47.490;11.116;2023-05-01T01:40:21;92891.69;;;8.93;83.45
21742;BME280;11033;47.490;11.116;2023-05-01T01:42:52;92893.06;;;8.88;84.90
21742;BME280;11033;47.490;11.116;2023-05-01T01:45:26;92893.06;;;8.88;84.42
21742;BME280;11033;47.490;11.116;2023-05-01T01:47:54;92891.22;;;9.04;83.28
21742;BME280;11033;47.490;11.116;2023-05-01T01:50:23;92887.94;;;9.02;83.46
21742;BME280;11033;47.490;11.116;2023-05-01T01:52:51;92886.31;;;9.01;84.18
21742;BME280;11033;47.490;11.116;2023-05-01T01:55:20;92891.16;;;8.97;83.78
21742;BME280;11033;47.490;11.116;2023-05-01T01:57:47;92889.81;;;8.86;84.63
21742;BME280;11033;47.490;11.116;2023-05-01T02:00:14;92884.63;;;8.93;84.49
21742;BME280;11033;47.490;11.116;2023-05-01T02:02:41;92887.19;;;8.86;85.03
21742;BME280;11033;47.490;11.116;2023-05-01T02:05:10;92878.44;;;8.79;85.89
21742;BME280;11033;47.490;11.116;2023-05-01T02:07:38;92885.63;;;8.92;85.59
21742;BME280;11033;47.490;11.116;2023-05-01T02:10:06;92872.38;;;8.79;85.72
21742;BME280;11033;47.490;11.116;2023-05-01T02:12:33;92874.38;;;8.77;85.24
21742;BME280;11033;47.490;11.116;2023-05-01T02:14:59;92875.69;;;8.87;85.51
21742;BME280;11033;47.490;11.116;2023-05-01T02:17:25;92874.56;;;8.97;84.62
21742;BME280;11033;47.490;11.116;2023-05-01T02:19:52;92873.50;;;8.91;84.60
21742;BME280;11033;47.490;11.116;2023-05-01T02:22:20;92869.88;;;8.92;85.06
21742;BME280;11033;47.490;11.116;2023-05-01T02:24:47;92869.13;;;8.77;84.88
21742;BME280;11033;47.490;11.116;2023-05-01T02:27:23;92862.84;;;8.56;87.40
21742;BME280;11033;47.490;11.116;2023-05-01T02:29:51;92859.84;;;8.45;88.17
21742;BME280;11033;47.490;11.116;2023-05-01T02:32:17;92867.28;;;8.56;87.56
21742;BME280;11033;47.490;11.116;2023-05-01T02:34:43;92861.41;;;8.54;87.94
21742;BME280;11033;47.490;11.116;2023-05-01T02:37:10;92860.94;;;8.50;87.61
21742;BME280;11033;47.490;11.116;2023-05-01T02:39:36;92864.38;;;8.51;87.80
21742;BME280;11033;47.490;11.116;2023-05-01T02:42:02;92860.66;;;8.60;88.11
21742;BME280;11033;47.490;11.116;2023-05-01T02:44:31;92857.03;;;8.61;87.53
21742;BME280;11033;47.490;11.116;2023-05-01T02:47:02;92854.44;;;8.46;87.80
21742;BME280;11033;47.490;11.116;2023-05-01T02:49:28;92851.34;;;8.43;88.43
21742;BME280;11033;47.490;11.116;2023-05-01T02:51:55;92858.22;;;8.44;88.91
21742;BME280;11033;47.490;11.116;2023-05-01T02:54:21;92852.44;;;8.34;88.75
21742;BME280;11033;47.490;11.116;2023-05-01T02:56:47;92846.91;;;8.43;89.32
21742;BME280;11033;47.490;11.116;2023-05-01T02:59:13;92848.16;;;8.33;88.89
21742;BME280;11033;47.490;11.116;2023-05-01T03:01:38;92844.09;;;8.45;88.25
21742;BME280;11033;47.490;11.116;2023-05-01T03:04:04;92840.50;;;8.46;88.63
21742;BME280;11033;47.490;11.116;2023-05-01T03:06:29;92833.53;;;8.53;87.47
21742;BME280;11033;47.490;11.116;2023-05-01T03:08:55;92838.13;;;8.51;87.69
21742;BME280;11033;47.490;11.116;2023-05-01T03:11:20;92838.69;;;8.46;87.73
21742;BME280;11033;47.490;11.116;2023-05-01T03:13:45;92840.72;;;8.66;86.96
21742;BME280;11033;47.490;11.116;2023-05-01T03:16:11;92837.78;;;8.54;87.23
21742;BME280;11033;47.490;11.116;2023-05-01T03:18:37;92835.91;;;8.69;85.59
21742;BME280;11033;47.490;11.116;2023-05-01T03:21:02;92833.66;;;8.66;86.71
21742;BME280;11033;47.490;11.116;2023-05-01T03:23:27;92837.03;;;8.60;86.78
21742;BME280;11033;47.490;11.116;2023-05-01T03:25:53;92838.72;;;8.68;85.66
21742;BME280;11033;47.490;11.116;2023-05-01T03:28:18;92840.13;;;8.49;87.79
21742;BME280;11033;47.490;11.116;2023-05-01T03:30:45;92839.69;;;8.45;87.75
21742;BME280;11033;47.490;11.116;2023-05-01T03:33:11;92841.03;;;8.56;87.32
21742;BME280;11033;47.490;11.116;2023-05-01T03:35:36;92838.50;;;8.48;87.85
21742;BME280;11033;47.490;11.116;2023-05-01T03:38:02;92840.34;;;8.69;86.45
21742;BME280;11033;47.490;11.116;2023-05-01T03:40:27;92839.03;;;8.58;87.13
21742;BME280;11033;47.490;11.116;2023-05-01T03:42:52;92829.78;;;8.62;87.59
21742;BME280;11033;47.490;11.116;2023-05-01T03:45:18;92832.78;;;8.80;86.07
21742;BME280;11033;47.490;11.116;2023-05-01T03:47:43;92834.16;;;8.76;86.52
21742;BME280;11033;47.490;11.116;2023-05-01T03:50:08;92831.03;;;8.66;87.15
21742;BME280;11033;47.490;11.116;2023-05-01T03:52:34;92827.53;;;8.80;86.67
21742;BME280;11033;47.490;11.116;2023-05-01T03:54:59;92836.16;;;8.74;86.57
21742;BME280;11033;47.490;11.116;2023-05-01T03:57:25;92823.78;;;8.89;85.88
21742;BME280;11033;47.490;11.116;2023-05-01T03:59:51;92831.41;;;8.84;86.21
21742;BME280;11033;47.490;11.116;2023-05-01T04:02:17;92824.97;;;8.66;87.77
21742;BME280;11033;47.490;11.116;2023-05-01T04:04:42;92827.16;;;8.83;87.46
21742;BME280;11033;47.490;11.116;2023-05-01T04:07:08;92831.34;;;8.99;83.81
21742;BME280;11033;47.490;11.116;2023-05-01T04:09:33;92826.28;;;8.76;86.11
21742;BME280;11033;47.490;11.116;2023-05-01T04:11:58;92829.28;;;8.73;87.24
21742;BME280;11033;47.490;11.116;2023-05-01T04:14:23;92819.16;;;8.92;85.68
21742;BME280;11033;47.490;11.116;2023-05-01T04:16:49;92834.53;;;8.95;86.63
21742;BME280;11033;47.490;11.116;2023-05-01T04:19:15;92833.09;;;8.71;88.03
21742;BME280;11033;47.490;11.116;2023-05-01T04:21:40;92825.91;;;8.79;87.43
21742;BME280;11033;47.490;11.116;2023-05-01T04:24:06;92825.16;;;8.85;87.21
21742;BME280;11033;47.490;11.116;2023-05-01T04:26:31;92825.41;;;8.90;86.24
21742;BME280;11033;47.490;11.116;2023-05-01T04:28:57;92827.72;;;8.79;87.14
21742;BME280;11033;47.490;11.116;2023-05-01T04:31:22;92828.66;;;8.93;87.75
21742;BME280;11033;47.490;11.116;2023-05-01T04:33:47;92826.16;;;9.06;86.00
21742;BME280;11033;47.490;11.116;2023-05-01T04:36:12;92832.59;;;9.03;84.71
21742;BME280;11033;47.490;11.116;2023-05-01T04:38:38;92828.97;;;9.04;85.71
21742;BME280;11033;47.490;11.116;2023-05-01T04:41:06;92832.50;;;9.11;84.30
21742;BME280;11033;47.490;11.116;2023-05-01T04:43:31;92831.41;;;9.06;85.18
21742;BME280;11033;47.490;11.116;2023-05-01T04:45:56;92821.28;;;9.03;85.42
21742;BME280;11033;47.490;11.116;2023-05-01T04:48:22;92830.69;;;9.12;86.07
21742;BME280;11033;47.490;11.116;2023-05-01T04:50:47;92830.28;;;9.36;84.63
21742;BME280;11033;47.490;11.116;2023-05-01T04:53:12;92830.91;;;9.38;83.47
21742;BME280;11033;47.490;11.116;2023-05-01T04:55:38;92833.53;;;9.38;85.10
21742;BME280;11033;47.490;11.116;2023-05-01T04:58:03;92829.56;;;9.49;84.85
21742;BME280;11033;47.490;11.116;2023-05-01T05:00:29;92827.59;;;9.58;84.05
21742;BME280;11033;47.490;11.116;2023-05-01T05:02:55;92832.22;;;9.77;83.44
21742;BME280;11033;47.490;11.116;2023-05-01T05:05:20;92825.94;;;9.78;83.81
21742;BME280;11033;47.490;11.116;2023-05-01T05:07:46;92832.94;;;9.71;82.91
21742;BME280;11033;47.490;11.116;2023-05-01T05:10:12;92832.63;;;9.80;84.13
21742;BME280;11033;47.490;11.116;2023-05-01T05:12:37;92830.44;;;9.84;83.31
21742;BME280;11033;47.490;11.116;2023-05-01T05:15:02;92829.69;;;9.97;83.30
21742;BME280;11033;47.490;11.116;2023-05-01T05:17:27;92827.91;;;10.04;82.23
21742;BME280;11033;47.490;11.116;2023-05-01T05:19:53;92834.44;;;10.14;82.55
21742;BME280;11033;47.490;11.116;2023-05-01T05:22:18;92824.78;;;10.22;82.50
21742;BME280;11033;47.490;11.116;2023-05-01T05:24:43;92828.16;;;10.15;83.10
21742;BME280;11033;47.490;11.116;2023-05-01T05:27:09;92830.66;;;10.24;82.17
21742;BME280;11033;47.490;11.116;2023-05-01T05:29:34;92823.59;;;10.31;81.35
21742;BME280;11033;47.490;11.116;2023-05-01T05:32:00;92828.34;;;10.42;82.75
21742;BME280;11033;47.490;11.116;2023-05-01T05:34:26;92828.41;;;10.62;81.08
21742;BME280;11033;47.490;11.116;2023-05-01T05:36:51;92825.94;;;10.47;80.77
21742;BME280;11033;47.490;11.116;2023-05-01T05:39:16;92831.84;;;10.62;80.78
21742;BME280;11033;47.490;11.116;2023-05-01T05:41:42;92825.75;;;10.55;81.10
21742;BME280;11033;47.490;11.116;2023-05-01T05:44:07;92830.25;;;10.74;80.35
21742;BME280;11033;47.490;11.116;2023-05-01T05:46:32;92820.94;;;10.78;80.70
21742;BME280;11033;47.490;11.116;2023-05-01T05:48:58;92834.53;;;10.75;79.65
21742;BME280;11033;47.490;11.116;2023-05-01T05:51:23;92830.88;;;10.76;80.16
21742;BME280;11033;47.490;11.116;2023-05-01T05:53:48;92822.38;;;10.88;78.99
21742;BME280;11033;47.490;11.116;2023-05-01T05:56:13;92825.22;;;10.93;80.05
21742;BME280;11033;47.490;11.116;2023-05-01T05:58:39;92827.47;;;10.96;79.10
21742;BME280;11033;47.490;11.116;2023-05-01T06:01:04;92828.91;;;10.98;79.23
21742;BME280;11033;47.490;11.116;2023-05-01T06:03:31;92826.91;;;11.14;78.52
21742;BME280;11033;47.490;11.116;2023-05-01T06:05:56;92830.16;;;11.22;79.32
21742;BME280;11033;47.490;11.116;2023-05-01T06:08:21;92832.00;;;11.22;78.28
21742;BME280;11033;47.490;11.116;2023-05-01T06:10:47;92823.69;;;11.18;78.82
21742;BME280;11033;47.490;11.116;2023-05-01T06:13:12;92830.19;;;11.35;77.69
21742;BME280;11033;47.490;11.116;2023-05-01T06:15:38;92829.38;;;11.35;78.09
21742;BME280;11033;47.490;11.116;2023-05-01T06:18:04;92821.44;;;11.61;77.68
21742;BME280;11033;47.490;11.116;2023-05-01T06:20:30;92821.84;;;11.52;78.86
21742;BME280;11033;47.490;11.116;2023-05-01T06:22:55;92831.41;;;11.46;78.66
21742;BME280;11033;47.490;11.116;2023-05-01T06:25:21;92822.88;;;11.64;78.35
21742;BME280;11033;47.490;11.116;2023-05-01T06:27:48;92823.06;;;11.69;78.40
21742;BME280;11033;47.490;11.116;2023-05-01T06:30:14;92820.44;;;11.56;79.33
21742;BME280;11033;47.490;11.116;2023-05-01T06:32:39;92823.91;;;11.76;79.72
21742;BME280;11033;47.490;11.116;2023-05-01T06:35:08;92824.13;;;11.81;78.75
21742;BME280;11033;47.490;11.116;2023-05-01T06:37:33;92821.22;;;12.02;77.45
21742;BME280;11033;47.490;11.116;2023-05-01T06:39:58;92819.66;;;11.88;79.74
21742;BME280;11033;47.490;11.116;2023-05-01T06:42:24;92820.03;;;11.98;79.36
21742;BME280;11033;47.490;11.116;2023-05-01T06:44:49;92823.22;;;12.20;79.22
21742;BME280;11033;47.490;11.116;2023-05-01T06:47:14;92826.09;;;12.12;79.35
21742;BME280;11033;47.490;11.116;2023-05-01T06:49:40;92826.94;;;11.99;79.05
21742;BME280;11033;47.490;11.116;2023-05-01T06:52:05;92831.19;;;12.00;78.83
21742;BME280;11033;47.490;11.116;2023-05-01T06:54:30;92830.94;;;12.22;78.61
21742;BME280;11033;47.490;11.116;2023-05-01T06:56:56;92831.75;;;12.22;77.24
21742;BME280;11033;47.490;11.116;2023-05-01T06:59:21;92830.28;;;12.46;77.13
21742;BME280;11033;47.490;11.116;2023-05-01T07:01:46;92838.81;;;12.42;77.82
21742;BME280;11033;47.490;11.116;2023-05-01T07:04:11;92837.81;;;12.29;78.82
21742;BME280;11033;47.490;11.116;2023-05-01T07:06:37;92841.66;;;12.40;78.27
21742;BME280;11033;47.490;11.116;2023-05-01T07:09:03;92842.47;;;12.47;78.45
21742;BME280;11033;47.490;11.116;2023-05-01T07:11:29;92838.41;;;12.31;79.51
21742;BME280;11033;47.490;11.116;2023-05-01T07:13:55;92848.94;;;12.51;78.43
21742;BME280;11033;47.490;11.116;2023-05-01T07:16:20;92846.94;;;12.40;80.22
21742;BME280;11033;47.490;11.116;2023-05-01T07:18:46;92845.41;;;12.70;78.77
21742;BME280;11033;47.490;11.116;2023-05-01T07:21:11;92845.81;;;12.67;79.46
21742;BME280;11033;47.490;11.116;2023-05-01T07:23:37;92854.78;;;12.66;78.24
21742;BME280;11033;47.490;11.116;2023-05-01T07:26:02;92843.44;;;12.59;79.33
21742;BME280;11033;47.490;11.116;2023-05-01T07:28:28;92851.09;;;12.74;78.86
21742;BME280;11033;47.490;11.116;2023-05-01T07:30:54;92847.81;;;12.79;78.77
21742;BME280;11033;47.490;11.116;2023-05-01T07:33:19;92850.56;;;13.04;77.30
21742;BME280;11033;47.490;11.116;2023-05-01T07:35:45;92845.72;;;12.87;79.02
21742;BME280;11033;47.490;11.116;2023-05-01T07:38:10;92848.31;;;12.56;79.50
21742;BME280;11033;47.490;11.116;2023-05-01T07:40:36;92849.91;;;12.63;79.12
21742;BME280;11033;47.490;11.116;2023-05-01T07:43:02;92849.19;;;12.30;79.52
21742;BME280;11033;47.490;11.116;2023-05-01T07:45:28;92846.72;;;12.48;79.30
21742;BME280;11033;47.490;11.116;2023-05-01T07:47:53;92847.34;;;12.44;78.94
21742;BME280;11033;47.490;11.116;2023-05-01T07:50:19;92850.63;;;12.39;79.64
21742;BME280;11033;47.490;11.116;2023-05-01T07:52:44;92846.44;;;12.69;77.87
21742;BME280;11033;47.490;11.116;2023-05-01T07:55:10;92854.28;;;12.83;78.53
21742;BME280;11033;47.490;11.116;2023-05-01T07:57:36;92856.53;;;12.86;78.40
21742;BME280;11033;47.490;11.116;2023-05-01T08:00:01;92856.72;;;12.84;79.09
21742;BME280;11033;47.490;11.116;2023-05-01T08:02:26;92856.66;;;12.97;77.71
21742;BME280;11033;47.490;11.116;2023-05-01T08:04:52;92860.16;;;12.91;79.24
21742;BME280;11033;47.490;11.116;2023-05-01T08:07:17;92859.94;;;12.93;79.11
21742;BME280;11033;47.490;11.116;2023-05-01T08:09:43;92863.94;;;13.09;78.03
21742;BME280;11033;47.490;11.116;2023-05-01T08:12:08;92858.25;;;13.12;76.96
21742;BME280;11033;47.490;11.116;2023-05-01T08:14:33;92861.91;;;13.17;76.99
21742;BME280;11033;47.490;11.116;2023-05-01T08:16:59;92864.75;;;13.09;78.85
21742;BME280;11033;47.490;11.116;2023-05-01T08:19:24;92863.72;;;13.17;78.38
21742;BME280;11033;47.490;11.116;2023-05-01T08:21:51;92872.53;;;13.04;78.40
21742;BME280;11033;47.490;11.116;2023-05-01T08:24:16;92874.09;;;13.12;78.95
21742;BME280;11033;47.490;11.116;2023-05-01T08:26:41;92874.91;;;13.12;79.63
21742;BME280;11033;47.490;11.116;2023-05-01T08:29:07;92867.78;;;13.19;79.86
21742;BME280;11033;47.490;11.116;2023-05-01T08:31:32;92867.84;;;13.44;79.39
21742;BME280;11033;47.490;11.116;2023-05-01T08:34:01;92868.13;;;13.29;80.03
21742;BME280;11033;47.490;11.116;2023-05-01T08:36:27;92872.56;;;13.67;78.90
21742;BME280;11033;47.490;11.116;2023-05-01T08:38:52;92873.50;;;13.79;79.83
21742;BME280;11033;47.490;11.116;2023-05-01T08:41:20;92870.78;;;13.86;77.22
21742;BME280;11033;47.490;11.116;2023-05-01T08:43:47;92867.03;;;13.44;79.10
21742;BME280;11033;47.490;11.116;2023-05-01T08:48:58;92866.03;;;13.94;76.74
21742;BME280;11033;47.490;11.116;2023-05-01T08:51:25;92876.72;;;14.06;76.85
21742;BME280;11033;47.490;11.116;2023-05-01T08:53:51;92881.22;;;14.06;76.43
21742;BME280;11033;47.490;11.116;2023-05-01T08:56:18;92880.81;;;14.27;76.12
21742;BME280;11033;47.490;11.116;2023-05-01T08:58:48;92885.50;;;14.25;75.57
21742;BME280;11033;47.490;11.116;2023-05-01T09:01:14;92885.22;;;14.15;75.40
21742;BME280;11033;47.490;11.116;2023-05-01T09:03:41;92872.69;;;14.04;77.42
21742;BME280;11033;47.490;11.116;2023-05-01T09:06:09;92888.19;;;13.75;77.67
21742;BME280;11033;47.490;11.116;2023-05-01T09:08:34;92878.28;;;14.14;75.45
21742;BME280;11033;47.490;11.116;2023-05-01T09:11:01;92876.66;;;14.13;76.64
21742;BME280;11033;47.490;11.116;2023-05-01T09:13:27;92882.94;;;13.93;77.67
21742;BME280;11033;47.490;11.116;2023-05-01T09:15:52;92887.94;;;14.26;76.06
21742;BME280;11033;47.490;11.116;2023-05-01T09:18:18;92887.75;;;13.78;78.37
21742;BME280;11033;47.490;11.116;2023-05-01T09:20:43;92882.06;;;12.98;80.72
21742;BME280;11033;47.490;11.116;2023-05-01T09:23:08;92884.75;;;12.92;81.41
21742;BME280;11033;47.490;11.116;2023-05-01T09:25:34;92880.84;;;13.46;79.32
21742;BME280;11033;47.490;11.116;2023-05-01T09:27:59;92884.91;;;13.10;81.61
21742;BME280;11033;47.490;11.116;2023-05-01T09:30:36;92880.75;;;13.59;79.68
21742;BME280;11033;47.490;11.116;2023-05-01T09:33:12;92879.91;;;14.15;77.30
21742;BME280;11033;47.490;11.116;2023-05-01T09:38:16;92879.03;;;14.21;77.34
21742;BME280;11033;47.490;11.116;2023-05-01T09:40:42;92885.47;;;14.32;77.63
21742;BME280;11033;47.490;11.116;2023-05-01T09:43:08;92875.50;;;14.88;75.49
21742;BME280;11033;47.490;11.116;2023-05-01T09:45:33;92873.91;;;14.51;76.91
21742;BME280;11033;47.490;11.116;2023-05-01T09:48:07;92879.78;;;14.28;78.50
21742;BME280;11033;47.490;11.116;2023-05-01T09:50:35;92867.56;;;14.70;78.05
21742;BME280;11033;47.490;11.116;2023-05-01T09:53:02;92869.06;;;15.14;75.86
21742;BME280;11033;47.490;11.116;2023-05-01T09:55:29;92865.59;;;16.27;72.98
21742;BME280;11033;47.490;11.116;2023-05-01T09:57:54;92859.28;;;15.75;74.36
21742;BME280;11033;47.490;11.116;2023-05-01T10:00:19;92858.72;;;16.08;72.05
21742;BME280;11033;47.490;11.116;2023-05-01T10:02:47;92865.84;;;15.42;72.72
21742;BME280;11033;47.490;11.116;2023-05-01T10:05:13;92852.84;;;16.06;72.05
21742;BME280;11033;47.490;11.116;2023-05-01T10:07:39;92860.53;;;15.72;72.63
21742;BME280;11033;47.490;11.116;2023-05-01T10:10:16;92850.91;;;16.36;72.23
21742;BME280;11033;47.490;11.116;2023-05-01T10:12:41;92849.03;;;16.48;70.08
21742;BME280;11033;47.490;11.116;2023-05-01T10:15:08;92851.59;;;16.43;70.48
21742;BME280;11033;47.490;11.116;2023-05-01T10:17:34;92842.56;;;16.56;70.18
21742;BME280;11033;47.490;11.116;2023-05-01T10:20:00;92839.56;;;16.29;70.70
21742;BME280;11033;47.490;11.116;2023-05-01T10:22:25;92846.84;;;16.10;70.52
21742;BME280;11033;47.490;11.116;2023-05-01T10:24:52;92843.25;;;16.75;67.85
21742;BME280;11033;47.490;11.116;2023-05-01T10:27:18;92840.94;;;17.19;67.49
21742;BME280;11033;47.490;11.116;2023-05-01T10:29:44;92840.38;;;17.73;66.01
21742;BME280;11033;47.490;11.116;2023-05-01T10:32:11;92839.53;;;18.57;64.96
21742;BME280;11033;47.490;11.116;2023-05-01T10:34:47;92840.94;;;18.81;63.78
21742;BME280;11033;47.490;11.116;2023-05-01T10:37:45;92831.22;;;19.14;62.46
21742;BME280;11033;47.490;11.116;2023-05-01T10:43:23;92822.53;;;19.02;63.22
21742;BME280;11033;47.490;11.116;2023-05-01T10:45:54;92819.81;;;19.45;62.29
21742;BME280;11033;47.490;11.116;2023-05-01T10:53:34;92813.09;;;20.29;60.17
21742;BME280;11033;47.490;11.116;2023-05-01T10:56:00;92805.78;;;20.51;60.03
21742;BME280;11033;47.490;11.116;2023-05-01T11:03:54;92791.28;;;19.78;58.93
21742;BME280;11033;47.490;11.116;2023-05-01T11:06:20;92789.56;;;20.31;58.42
21742;BME280;11033;47.490;11.116;2023-05-01T11:08:45;92783.97;;;20.32;59.14
21742;BME280;11033;47.490;11.116;2023-05-01T11:14:05;92777.06;;;19.45;60.45
21742;BME280;11033;47.490;11.116;2023-05-01T11:19:44;92787.88;;;18.63;61.81
21742;BME280;11033;47.490;11.116;2023-05-01T11:21:58;92780.59;;;19.24;59.43
21742;BME280;11033;47.490;11.116;2023-05-01T11:24:31;92783.66;;;18.28;60.88
21742;BME280;11033;47.490;11.116;2023-05-01T11:26:57;92778.09;;;18.52;59.97
21742;BME280;11033;47.490;11.116;2023-05-01T11:29:29;92790.44;;;18.19;61.79
21742;BME280;11033;47.490;11.116;2023-05-01T11:31:56;92773.13;;;18.38;61.88
21742;BME280;11033;47.490;11.116;2023-05-01T11:34:21;92776.59;;;17.38;62.64
21742;BME280;11033;47.490;11.116;2023-05-01T11:36:48;92772.31;;;17.54;62.79
21742;BME280;11033;47.490;11.116;2023-05-01T11:39:14;92772.47;;;17.31;63.24
21742;BME280;11033;47.490;11.116;2023-05-01T11:41:41;92767.84;;;17.09;63.56
21742;BME280;11033;47.490;11.116;2023-05-01T11:44:06;92765.00;;;16.99;63.63
21742;BME280;11033;47.490;11.116;2023-05-01T11:46:32;92771.03;;;16.83;64.38
21742;BME280;11033;47.490;11.116;2023-05-01T11:49:01;92778.44;;;16.81;63.43
21742;BME280;11033;47.490;11.116;2023-05-01T11:51:27;92776.19;;;17.01;63.32
21742;BME280;11033;47.490;11.116;2023-05-01T11:54:06;92774.75;;;16.82;63.36
21742;BME280;11033;47.490;11.116;2023-05-01T11:56:34;92774.66;;;16.77;63.36
21742;BME280;11033;47.490;11.116;2023-05-01T12:01:39;92781.63;;;16.55;63.56
21742;BME280;11033;47.490;11.116;2023-05-01T12:04:06;92767.88;;;16.98;62.61
21742;BME280;11033;47.490;11.116;2023-05-01T12:06:41;92778.44;;;16.81;63.37
21742;BME280;11033;47.490;11.116;2023-05-01T12:09:23;92776.84;;;16.80;63.10
21742;BME280;11033;47.490;11.116;2023-05-01T12:11:52;92789.09;;;16.81;62.74
21742;BME280;11033;47.490;11.116;2023-05-01T12:14:19;92786.13;;;16.66;63.55
21742;BME280;11033;47.490;11.116;2023-05-01T12:16:45;92781.06;;;16.53;63.40
21742;BME280;11033;47.490;11.116;2023-05-01T12:19:13;92778.13;;;16.77;63.31
21742;BME280;11033;47.490;11.116;2023-05-01T12:21:39;92780.78;;;16.77;63.64
21742;BME280;11033;47.490;11.116;2023-05-01T12:24:12;92799.25;;;16.84;63.14
21742;BME280;11033;47.490;11.116;2023-05-01T12:26:40;92797.91;;;16.70;63.36
21742;BME280;11033;47.490;11.116;2023-05-01T12:29:06;92785.81;;;16.39;64.47
21742;BME280;11033;47.490;11.116;2023-05-01T12:31:33;92791.38;;;16.14;65.64
21742;BME280;11033;47.490;11.116;2023-05-01T12:34:03;92793.47;;;15.47;67.15
21742;BME280;11033;47.490;11.116;2023-05-01T12:36:30;92789.41;;;15.33;67.79
21742;BME280;11033;47.490;11.116;2023-05-01T12:38:58;92790.47;;;15.02;68.25
21742;BME280;11033;47.490;11.116;2023-05-01T12:44:26;92796.03;;;14.82;70.16
21742;BME280;11033;47.490;11.116;2023-05-01T12:47:05;92808.56;;;14.38;71.49
21742;BME280;11033;47.490;11.116;2023-05-01T12:49:33;92815.72;;;14.38;71.24
21742;BME280;11033;47.490;11.116;2023-05-01T12:52:02;92809.28;;;14.27;70.56
21742;BME280;11033;47.490;11.116;2023-05-01T12:54:29;92808.81;;;14.12;71.53
21742;BME280;11033;47.490;11.116;2023-05-01T12:57:12;92812.31;;;13.87;72.99
21742;BME280;11033;47.490;11.116;2023-05-01T12:59:42;92817.81;;;13.61;74.03
21742;BME280;11033;47.490;11.116;2023-05-01T13:02:12;92816.34;;;13.72;74.45
21742;BME280;11033;47.490;11.116;2023-05-01T13:04:44;92810.97;;;13.28;75.41
21742;BME280;11033;47.490;11.116;2023-05-01T13:07:17;92821.81;;;13.45;75.11
21742;BME280;11033;47.490;11.116;2023-05-01T13:09:57;92829.31;;;13.23;76.04
21742;BME280;11033;47.490;11.116;2023-05-01T13:12:24;92830.97;;;13.11;78.43
21742;BME280;11033;47.490;11.116;2023-05-01T13:14:50;92830.72;;;13.26;78.51
21742;BME280;11033;47.490;11.116;2023-05-01T13:17:26;92834.09;;;13.01;79.28
21742;BME280;11033;47.490;11.116;2023-05-01T13:19:59;92834.34;;;12.87;79.72
21742;BME280;11033;47.490;11.116;2023-05-01T13:22:35;92840.66;;;12.86;80.54
21742;BME280;11033;47.490;11.116;2023-05-01T13:25:02;92841.66;;;12.91;80.79
21742;BME280;11033;47.490;11.116;2023-05-01T13:27:28;92846.50;;;13.01;79.04
21742;BME280;11033;47.490;11.116;2023-05-01T13:29:54;92842.09;;;12.82;79.96
21742;BME280;11033;47.490;11.116;2023-05-01T13:32:22;92841.25;;;12.88;79.51
21742;BME280;11033;47.490;11.116;2023-05-01T13:34:48;92845.53;;;12.89;79.82
21742;BME280;11033;47.490;11.116;2023-05-01T13:37:14;92847.03;;;12.72;80.75
21742;BME280;11033;47.490;11.116;2023-05-01T13:39:41;92852.25;;;12.85;81.21
21742;BME280;11033;47.490;11.116;2023-05-01T13:42:07;92859.81;;;12.75;82.56